Kabetogama, Minnesota
Current Conditions -  °F | °C
As of 5:55 PM on Thursday 27 Nov 2014 (Local Time) from KINL Reporting Station
Clear Clear  
Wind Chill: -4°   Ceiling: Unl
Heat Index: -4°   Visibility: 10mi
Dew Point: -9°   Wind: 0mph
Humidity: 79%   Direction: NA
Pressure: 30.28"   Gusts: NA
Location:  48.5197°N, 92.902°W
Report Text: KINL 272355Z AUTO 00000KT 10SM CLR M20/M23 A3028 RMK AO2 SLP298 T12001228 11161 21211 58019 $
Loading
Personal Weather Stations






























Interactive Weather Map New forecast layout! Learn more

10-Day Weather Forecast

Advertisements
Track Severe Weather on mobile